Larkspur — C6BR6 — position and weather

sailwx.info

Track history (hours):
 
Tides and Currents Weather Stations Pressure Air Temp Water Temp Dewpoint Dewpoint Depression Visibility Wind Speed Wind Dir Waves Ship Positions

Larkspur

Operator: Transeuropa Lines

Last reported at 2017-Apr-28 21:45 UTC. Time now 2017-Apr-29 13:24 UTC.
Position N 29°44' W 095°07'.

Length 225 m; draft 8.3 m.

Type: Tanker. MMSI: 311000344.

Date/timePositionNaut miles runAvg speedWind from/ knotsBaromVisibWave heightAir tempDewpointWater temp
2017-Apr-28 21:45N 29°44' W 095°07'0 0.6
2017-Apr-28 21:30N 29°44' W 095°07'2 4.7
2017-Apr-28 21:00N 29°46' W 095°05'3 6.5
2017-Apr-28 20:30N 29°44' W 095°02'4 7.3
2017-Apr-28 20:00N 29°41' W 094°59'4 8.4
2017-Apr-28 19:30N 29°37' W 094°58'510.9
2017-Apr-28 19:00N 29°33' W 094°54'713.0
2017-Apr-28 18:30N 29°27' W 094°51'713.3
2017-Apr-28 18:00N 29°21' W 094°47'  
2017-Apr-24 22:31N 09°34' W 079°56'011.5
2017-Apr-24 22:30N 09°34' W 079°56'510.5
2017-Apr-24 22:00N 09°29' W 079°55'5 9.5
2017-Apr-24 21:31N 09°24' W 079°55'4 8.3
2017-Apr-24 21:00N 09°20' W 079°55'3 5.6
2017-Apr-24 20:30N 09°17' W 079°55'1 1.1
2017-Apr-24 20:00N 09°16' W 079°55'0 0.5
2017-Apr-24 19:30N 09°16' W 079°55'0 0.0
2017-Apr-24 19:00N 09°16' W 079°55'0 0.5
2017-Apr-24 18:30N 09°16' W 079°55'0 0.0
2017-Apr-24 18:00N 09°16' W 079°55'1 1.4
2017-Apr-24 17:30N 09°15' W 079°55'1 2.5
2017-Apr-24 17:01N 09°14' W 079°55'4 5.5
2017-Apr-24 16:22N 09°11' W 079°53'  
Track history (hours):
 
Tides and Currents Weather Stations Pressure Air Temp Water Temp Dewpoint Dewpoint Depression Visibility Wind Speed Wind Dir Waves Ship Positions

Larkspur

Operator: Transeuropa Lines

Last reported at 2017-Apr-28 21:45 UTC. Time now 2017-Apr-29 13:24 UTC.
Position N 29°44' W 095°07'.

Length 225 m; draft 8.3 m.

Type: Tanker. MMSI: 311000344.

Date/timePositionNaut miles runAvg speedWind from/ knotsBaromVisibWave heightAir tempDewpointWater temp
2017-Apr-28 21:45N 29°44' W 095°07'0 0.6
2017-Apr-28 21:30N 29°44' W 095°07'2 4.7
2017-Apr-28 21:00N 29°46' W 095°05'3 6.5
2017-Apr-28 20:30N 29°44' W 095°02'4 7.3
2017-Apr-28 20:00N 29°41' W 094°59'4 8.4
2017-Apr-28 19:30N 29°37' W 094°58'510.9
2017-Apr-28 19:00N 29°33' W 094°54'713.0
2017-Apr-28 18:30N 29°27' W 094°51'713.3
2017-Apr-28 18:00N 29°21' W 094°47'  
2017-Apr-24 22:31N 09°34' W 079°56'011.5
2017-Apr-24 22:30N 09°34' W 079°56'510.5
2017-Apr-24 22:00N 09°29' W 079°55'5 9.5
2017-Apr-24 21:31N 09°24' W 079°55'4 8.3
2017-Apr-24 21:00N 09°20' W 079°55'3 5.6
2017-Apr-24 20:30N 09°17' W 079°55'1 1.1
2017-Apr-24 20:00N 09°16' W 079°55'0 0.5
2017-Apr-24 19:30N 09°16' W 079°55'0 0.0
2017-Apr-24 19:00N 09°16' W 079°55'0 0.5
2017-Apr-24 18:30N 09°16' W 079°55'0 0.0
2017-Apr-24 18:00N 09°16' W 079°55'1 1.4
2017-Apr-24 17:30N 09°15' W 079°55'1 2.5
2017-Apr-24 17:01N 09°14' W 079°55'4 5.5
2017-Apr-24 16:22N 09°11' W 079°53'  

Dump ship's entire track history